Arnett, WV

7:09 PM EDT on October 22, 2014 (GMT -0400)
Fairdale | Change Station
CLOSE
Current Station
Personal Weather Station
Location: Lester, WV
Elevation: 1938 ft
Nearby Weather Stations

Elev 1938 ft 37.74 °N, 81.35 °W | Updated 5 seconds ago

Overcast
Overcast
45.9 °F
Feels Like 46 °F
N
0.0
Wind Variable Wind from WNW
Gusts 0.0 mph

Today
High -- | Low -- °F
--% Chance of Precip.
Yesterday
High -- | Low -- °F
Precip. -- in
7:40 AM 6:38 PM
Waning Crescent, 1% visible
Pressure 30.16 in
Visibility 7.0 miles
Clouds Scattered Clouds 800 ft
Overcast 1600 ft
Windchill 46 °F
Dew Point 40 °F
Humidity 81%
Rainfall 0.04 in
Snow Depth Not available.
UV 0 out of 12
Pollen .30 out of 12
Air Quality Not available.
Flu Activity Sporadic
SPECI KBKW 222304Z AUTO 32008KT 7SM SCT008 OVC016 06/04 A3016

More Conditions Fewer Conditions

Pressure 30.16 in
Visibility 7.0 miles
Clouds Scattered Clouds 800 ft
Overcast 1600 ft
Windchill 46 °F
Dew Point 40 °F
Humidity 81%
Rainfall 0.04 in
Snow Depth Not available.
UV 0 out of 12
Pollen .30 out of 12
Air Quality Not available.
Flu Activity Sporadic
SPECI KBKW 222304Z AUTO 32008KT 7SM SCT008 OVC016 06/04 A3016

More Conditions Fewer Conditions

10-Day Weather Forecast

Almanac

Astronomy

Oct. 22, 2014 Rise Set
Actual Time 7:40 AM EDT 6:38 PM EDT
Civil Twilight 7:14 AM EDT 7:05 PM EDT
Nautical Twilight 6:43 AM EDT 7:36 PM EDT
Astronomical Twilight 6:13 AM EDT 8:06 PM EDT
Moon 6:22 AM EDT 6:03 PM EDT
Length of Visible Light 11h 51m
Length of Day
10h 57m
Tomorrow will be 2m 17s shorter.
Waning Crescent, 1% of the Moon is Illuminated
Today
Waning Crescent
Oct 23
New
Oct 30
First Quarter
Nov 6
Full
Nov 14
Last Quarter

Today's Extremes

State Highs State Lows

Community

WunderPhotos

Upload Photos

1,764,071 photos uploaded!

WunderBlogs® & News

Nearby

Snow Depth

Station Depth Elevation
No new snow has been reported.

Earthquake Activity

City Distance Mag. Time & Date
No recent earthquake activity has been reported nearby.
Minimum magnitude displayed is 2.5.

Coastal Water Temperatures

Place Temperature
No Stations Reporting

Nearby Weather Stations